createdAt,value
2023-02-05T00:01:46.980Z,75.26
2023-02-05T00:04:14.585Z,75.15
2023-02-05T00:06:41.257Z,74.88
2023-02-05T00:09:09.413Z,74.96
2023-02-05T00:11:37.566Z,75.54
2023-02-05T00:14:04.263Z,75.29
2023-02-05T00:16:31.721Z,75.66
2023-02-05T00:19:05.297Z,75.51
2023-02-05T00:21:32.655Z,75.67
2023-02-05T00:24:00.601Z,75.50
2023-02-05T00:26:28.651Z,75.57
2023-02-05T00:28:58.323Z,75.46
2023-02-05T00:31:27.201Z,76.69
2023-02-05T00:33:58.072Z,77.73
2023-02-05T00:36:25.560Z,75.22
2023-02-05T00:38:54.942Z,73.84
2023-02-05T00:41:23.214Z,73.50
2023-02-05T00:43:51.272Z,74.01
2023-02-05T00:46:22.874Z,73.15
2023-02-05T00:48:50.558Z,74.96
2023-02-05T00:51:21.716Z,73.59
2023-02-05T00:53:50.170Z,73.21
2023-02-05T00:56:21.301Z,71.84
2023-02-05T00:58:52.214Z,72.46
2023-02-05T01:01:18.869Z,72.79
2023-02-05T01:03:47.060Z,71.70
2023-02-05T01:06:16.227Z,71.89
2023-02-05T01:08:46.564Z,72.88
2023-02-05T01:11:15.299Z,72.60
2023-02-05T01:13:42.641Z,72.97
2023-02-05T01:16:10.572Z,72.35
2023-02-05T01:18:39.759Z,72.69
2023-02-05T01:21:08.052Z,72.67
2023-02-05T01:23:36.686Z,71.97
2023-02-05T01:26:04.758Z,72.64
2023-02-05T01:28:32.772Z,72.83
2023-02-05T01:31:01.559Z,72.32
2023-02-05T01:33:31.724Z,73.55
2023-02-05T01:35:58.676Z,73.05
2023-02-05T01:38:29.420Z,73.41
2023-02-05T01:40:56.790Z,71.82
2023-02-05T01:43:24.869Z,71.38
2023-02-05T01:46:03.855Z,71.78
2023-02-05T01:48:34.183Z,73.31
2023-02-05T01:51:06.656Z,74.05
2023-02-05T01:53:35.205Z,74.15
2023-02-05T01:56:06.644Z,73.75
2023-02-05T01:58:38.102Z,73.97
2023-02-05T02:01:05.587Z,74.73
2023-02-05T02:03:32.708Z,73.70
2023-02-05T02:06:09.083Z,74.53
2023-02-05T02:08:36.485Z,73.71
2023-02-05T02:11:10.503Z,72.70
2023-02-05T02:13:38.002Z,72.72
2023-02-05T02:16:05.435Z,72.86
2023-02-05T02:18:34.724Z,73.21
2023-02-05T02:21:20.561Z,73.18
2023-02-05T02:23:53.341Z,73.98
2023-02-05T02:26:43.883Z,74.40
2023-02-05T02:29:14.851Z,72.64
2023-02-05T02:31:47.765Z,72.75
2023-02-05T02:34:27.070Z,72.20
2023-02-05T02:36:56.686Z,72.47
2023-02-05T02:39:31.366Z,72.30
2023-02-05T02:42:00.946Z,73.02
2023-02-05T02:44:47.087Z,72.19
2023-02-05T02:47:19.821Z,72.82
2023-02-05T02:49:55.753Z,72.92
2023-02-05T02:52:25.110Z,72.25
2023-02-05T02:54:56.541Z,72.05
2023-02-05T02:57:25.594Z,72.38
2023-02-05T02:59:54.508Z,71.41
2023-02-05T03:02:21.658Z,70.41
2023-02-05T03:04:51.557Z,70.33
2023-02-05T03:08:02.391Z,70.17
2023-02-05T03:10:38.894Z,70.31
2023-02-05T03:13:05.535Z,69.76
2023-02-05T03:15:32.466Z,69.43
2023-02-05T03:17:59.473Z,69.22
2023-02-05T03:20:30.566Z,69.66
2023-02-05T03:22:57.496Z,69.88
2023-02-05T03:25:28.282Z,70.19
2023-02-05T03:27:55.136Z,70.49
2023-02-05T03:30:24.065Z,70.06
2023-02-05T03:32:50.538Z,69.74
2023-02-05T03:35:25.994Z,69.87
2023-02-05T03:38:09.410Z,69.00
2023-02-05T03:40:41.937Z,69.63
2023-02-05T03:43:30.640Z,70.09
2023-02-05T03:46:09.157Z,69.08
2023-02-05T03:48:41.105Z,70.03
2023-02-05T03:51:28.759Z,69.46
2023-02-05T03:54:05.288Z,68.20
2023-02-05T03:56:37.050Z,68.91
2023-02-05T03:59:05.156Z,69.54
2023-02-05T04:01:32.716Z,70.46
2023-02-05T04:04:00.113Z,70.41
2023-02-05T04:06:27.013Z,69.99
2023-02-05T04:08:55.770Z,69.55
2023-02-05T04:11:22.701Z,69.97
2023-02-05T04:13:50.903Z,71.04
2023-02-05T04:16:17.641Z,69.80
2023-02-05T04:18:44.428Z,69.60
2023-02-05T04:21:11.514Z,69.71
2023-02-05T04:23:38.416Z,69.47
2023-02-05T04:26:05.042Z,69.46
2023-02-05T04:28:31.937Z,69.23
2023-02-05T04:30:59.150Z,68.99
2023-02-05T04:33:25.632Z,68.36
2023-02-05T04:35:52.781Z,67.66
2023-02-05T04:38:20.707Z,67.68
2023-02-05T04:40:47.145Z,68.75
2023-02-05T04:43:13.984Z,69.35
2023-02-05T04:45:41.165Z,69.78
2023-02-05T04:48:08.663Z,69.30
2023-02-05T04:50:36.826Z,69.68
2023-02-05T04:53:04.545Z,71.76
2023-02-05T04:55:33.641Z,71.53
2023-02-05T04:58:01.305Z,70.86
2023-02-05T05:00:28.954Z,72.05
2023-02-05T05:02:56.141Z,71.73
2023-02-05T05:05:23.059Z,71.60
2023-02-05T05:07:50.029Z,72.16
2023-02-05T05:10:16.798Z,71.17
2023-02-05T05:12:43.938Z,72.05
2023-02-05T05:15:11.108Z,71.39
2023-02-05T05:17:37.992Z,71.52
2023-02-05T05:20:12.222Z,72.18
2023-02-05T05:22:39.187Z,71.65
2023-02-05T05:25:08.697Z,70.87
2023-02-05T05:27:36.565Z,71.27
2023-02-05T05:30:03.799Z,70.99
2023-02-05T05:32:35.804Z,70.48
2023-02-05T05:35:04.271Z,70.40
2023-02-05T05:37:31.049Z,70.13
2023-02-05T05:40:18.362Z,69.81
2023-02-05T05:43:05.961Z,69.58
2023-02-05T05:45:34.636Z,70.17
2023-02-05T05:48:01.732Z,69.64
2023-02-05T05:50:31.899Z,68.71
2023-02-05T05:53:00.528Z,69.81
2023-02-05T05:55:27.318Z,68.84
2023-02-05T05:57:55.773Z,70.21
2023-02-05T06:00:22.521Z,69.30
2023-02-05T06:02:50.164Z,68.32
2023-02-05T06:05:17.314Z,67.91
2023-02-05T06:07:44.749Z,68.64
2023-02-05T06:10:12.869Z,69.21
2023-02-05T06:12:42.353Z,69.67
2023-02-05T06:15:10.309Z,68.90
2023-02-05T06:17:37.766Z,68.04
2023-02-05T06:20:09.800Z,68.37
2023-02-05T06:22:38.487Z,68.89
2023-02-05T06:25:06.506Z,68.56
2023-02-05T06:27:33.795Z,68.46
2023-02-05T06:30:00.499Z,68.84
2023-02-05T06:32:28.099Z,69.26
2023-02-05T06:34:55.185Z,68.95
2023-02-05T06:37:34.173Z,69.21
2023-02-05T06:40:13.110Z,68.96
2023-02-05T06:42:42.019Z,68.29
2023-02-05T06:45:10.564Z,68.21
2023-02-05T06:47:38.585Z,67.94
2023-02-05T06:50:09.339Z,67.40
2023-02-05T06:52:36.210Z,67.90
2023-02-05T06:55:04.017Z,68.19
2023-02-05T06:57:33.081Z,67.25
2023-02-05T07:00:00.882Z,67.07
2023-02-05T07:02:28.253Z,67.47
2023-02-05T07:04:55.246Z,67.11
2023-02-05T07:07:22.871Z,67.05
2023-02-05T07:09:49.961Z,66.92
2023-02-05T07:12:16.962Z,67.58
2023-02-05T07:14:44.808Z,67.21
2023-02-05T07:17:12.532Z,66.56
2023-02-05T07:19:39.265Z,66.40
2023-02-05T07:22:07.167Z,66.76
2023-02-05T07:24:34.264Z,66.00
2023-02-05T07:27:00.882Z,67.41
2023-02-05T07:29:28.883Z,67.10
2023-02-05T07:31:57.003Z,67.51
2023-02-05T07:34:25.192Z,66.71
2023-02-05T07:36:52.639Z,65.95
2023-02-05T07:39:21.271Z,65.77
2023-02-05T07:41:49.408Z,66.23
2023-02-05T07:44:18.305Z,66.41
2023-02-05T07:46:46.091Z,66.87
2023-02-05T07:49:13.265Z,66.72
2023-02-05T07:51:39.811Z,66.53
2023-02-05T07:54:09.098Z,67.13
2023-02-05T07:56:36.749Z,68.61
2023-02-05T07:59:03.633Z,67.89
2023-02-05T08:01:32.929Z,67.40
2023-02-05T08:04:02.639Z,68.31
2023-02-05T08:06:35.864Z,68.47
2023-02-05T08:09:04.127Z,68.34
2023-02-05T08:11:32.594Z,68.80
2023-02-05T08:13:59.259Z,68.11
2023-02-05T08:16:26.996Z,69.01
2023-02-05T08:18:54.012Z,68.75
2023-02-05T08:21:22.833Z,67.47
2023-02-05T08:23:49.634Z,66.75
2023-02-05T08:26:18.577Z,66.51
2023-02-05T08:28:49.776Z,66.92
2023-02-05T08:31:19.263Z,67.35
2023-02-05T08:33:47.986Z,67.48
2023-02-05T08:36:14.999Z,67.52
2023-02-05T08:38:45.516Z,67.41
2023-02-05T08:41:14.244Z,68.05
2023-02-05T08:43:43.798Z,67.00
2023-02-05T08:46:12.161Z,66.47
2023-02-05T08:48:39.803Z,66.56
2023-02-05T08:51:10.944Z,65.58
2023-02-05T08:53:41.787Z,65.81
2023-02-05T08:56:17.179Z,65.03
2023-02-05T09:01:29.072Z,67.55
2023-02-05T09:04:00.036Z,66.64
2023-02-05T09:06:34.936Z,66.54
2023-02-05T09:09:04.003Z,66.02
2023-02-05T09:11:32.403Z,64.86
2023-02-05T09:14:01.348Z,64.65
2023-02-05T09:16:28.466Z,65.28
2023-02-05T09:18:57.406Z,65.63
2023-02-05T09:21:26.774Z,64.67
2023-02-05T09:23:54.205Z,64.75
2023-02-05T09:26:21.428Z,64.38
2023-02-05T09:28:48.991Z,63.19
2023-02-05T09:31:17.584Z,62.53
2023-02-05T09:33:53.134Z,62.67
2023-02-05T09:36:20.993Z,61.95
2023-02-05T09:38:48.609Z,62.20
2023-02-05T09:41:23.985Z,62.24
2023-02-05T09:43:54.301Z,62.40
2023-02-05T09:46:41.262Z,62.35
2023-02-05T09:49:14.330Z,63.18
2023-02-05T09:51:45.738Z,61.47
2023-02-05T09:54:18.344Z,62.84
2023-02-05T09:56:50.214Z,62.68
2023-02-05T09:59:20.696Z,61.44
2023-02-05T10:02:01.436Z,60.90
2023-02-05T10:04:28.031Z,61.56
2023-02-05T10:07:02.098Z,60.87
2023-02-05T10:09:48.997Z,59.85
2023-02-05T10:12:34.810Z,59.27
2023-02-05T10:15:10.658Z,59.24
2023-02-05T10:17:51.649Z,59.01
2023-02-05T10:20:44.487Z,58.64
2023-02-05T10:23:37.168Z,58.55
2023-02-05T10:26:14.794Z,58.77
2023-02-05T10:28:42.432Z,58.59
2023-02-05T10:31:18.291Z,58.73
2023-02-05T10:33:49.516Z,60.15
2023-02-05T10:36:17.879Z,60.55
2023-02-05T10:38:45.531Z,60.23
2023-02-05T10:41:14.877Z,59.21
2023-02-05T10:43:50.579Z,58.35
2023-02-05T10:46:20.008Z,58.36
2023-02-05T10:49:13.664Z,57.59
2023-02-05T10:51:41.898Z,57.02
2023-02-05T10:54:28.902Z,59.20
2023-02-05T10:56:56.499Z,57.76
2023-02-05T10:59:25.886Z,58.21
2023-02-05T11:01:55.400Z,57.81
2023-02-05T11:04:33.904Z,57.14
2023-02-05T11:07:02.568Z,56.51
2023-02-05T11:09:31.529Z,57.07
2023-02-05T11:12:01.850Z,57.66
2023-02-05T11:14:33.139Z,58.22
2023-02-05T11:17:03.611Z,58.18
2023-02-05T11:19:31.191Z,57.76
2023-02-05T11:22:00.746Z,57.34
2023-02-05T11:24:41.454Z,56.29
2023-02-05T11:27:13.541Z,57.19
2023-02-05T11:29:41.367Z,57.65
2023-02-05T11:32:27.615Z,57.66
2023-02-05T11:35:08.690Z,58.92
2023-02-05T11:37:39.213Z,58.17
2023-02-05T11:40:05.966Z,57.62
2023-02-05T11:42:33.086Z,57.03
2023-02-05T11:45:02.630Z,57.10
2023-02-05T11:47:39.439Z,57.32
2023-02-05T11:50:17.341Z,56.63
2023-02-05T11:52:45.628Z,57.59
2023-02-05T11:55:24.072Z,57.59
2023-02-05T11:57:58.189Z,56.77
2023-02-05T12:00:25.115Z,58.36
2023-02-05T12:03:03.084Z,58.31
2023-02-05T12:05:33.086Z,57.90
2023-02-05T12:08:21.242Z,57.39
2023-02-05T12:10:47.992Z,56.87
2023-02-05T12:13:15.077Z,56.34
2023-02-05T12:15:45.070Z,56.58
2023-02-05T12:18:24.417Z,56.25
2023-02-05T12:21:03.104Z,57.02
2023-02-05T12:24:17.061Z,57.01
2023-02-05T12:26:45.059Z,57.13
2023-02-05T12:29:22.950Z,57.69
2023-02-05T12:32:21.432Z,56.67
2023-02-05T12:35:09.020Z,57.00
2023-02-05T12:37:44.852Z,55.84
2023-02-05T12:40:30.986Z,56.82
2023-02-05T12:43:06.356Z,56.62
2023-02-05T12:45:34.289Z,56.09
2023-02-05T12:48:20.384Z,57.13
2023-02-05T12:50:56.401Z,56.71
2023-02-05T12:53:29.605Z,55.45
2023-02-05T12:56:00.114Z,54.96
2023-02-05T12:58:33.297Z,55.54
2023-02-05T13:01:03.794Z,55.96
2023-02-05T13:03:49.749Z,56.93
2023-02-05T13:06:21.056Z,56.77
2023-02-05T13:09:01.920Z,55.49
2023-02-05T13:11:42.308Z,55.33
2023-02-05T13:14:15.520Z,56.33
2023-02-05T13:16:50.108Z,56.29
2023-02-05T13:19:34.020Z,54.57
2023-02-05T13:22:43.834Z,54.36
2023-02-05T13:25:51.427Z,57.10
2023-02-05T13:28:42.996Z,55.03
2023-02-05T13:31:19.910Z,53.54
2023-02-05T13:33:50.232Z,54.18
2023-02-05T13:36:48.568Z,53.46
2023-02-05T13:39:43.184Z,53.69
2023-02-05T13:42:34.202Z,53.42
2023-02-05T13:45:08.786Z,53.14
2023-02-05T13:47:55.552Z,53.54
2023-02-05T13:50:41.437Z,53.22
2023-02-05T13:53:28.233Z,53.49
2023-02-05T13:56:15.434Z,53.80
2023-02-05T13:58:57.861Z,53.13
2023-02-05T14:01:29.634Z,53.06
2023-02-05T14:04:01.076Z,52.98
2023-02-05T14:06:39.902Z,54.66
2023-02-05T14:09:14.324Z,55.85
2023-02-05T14:11:57.013Z,55.59
2023-02-05T14:14:38.820Z,54.61
2023-02-05T14:17:25.829Z,53.39
2023-02-05T14:19:58.488Z,53.65
2023-02-05T14:22:37.790Z,53.50
2023-02-05T14:25:33.150Z,54.53
2023-02-05T14:28:01.037Z,54.49
2023-02-05T14:30:41.456Z,54.17
2023-02-05T14:33:27.702Z,53.86
2023-02-05T14:35:58.429Z,53.91
2023-02-05T14:38:31.502Z,54.43
2023-02-05T14:41:19.330Z,53.14
2023-02-05T14:43:55.472Z,53.52
2023-02-05T14:46:27.856Z,53.93
2023-02-05T14:49:00.727Z,53.76
2023-02-05T14:51:41.518Z,54.91
2023-02-05T14:54:18.365Z,54.88
2023-02-05T14:57:10.115Z,56.06
2023-02-05T14:59:49.127Z,56.79
2023-02-05T15:02:36.474Z,57.60
2023-02-05T15:05:06.470Z,57.89
2023-02-05T15:07:36.160Z,58.93
2023-02-05T15:10:07.030Z,58.87
2023-02-05T15:12:55.709Z,58.86
2023-02-05T15:15:32.658Z,58.95
2023-02-05T15:18:14.418Z,58.53
2023-02-05T15:20:43.458Z,58.18
2023-02-05T15:23:21.710Z,58.58
2023-02-05T15:25:57.671Z,58.54
2023-02-05T15:28:33.939Z,58.07
2023-02-05T15:31:11.958Z,57.10
2023-02-05T15:34:01.172Z,56.89
2023-02-05T15:36:49.993Z,57.17
2023-02-05T15:39:25.865Z,57.21
2023-02-05T15:41:55.269Z,57.13
2023-02-05T15:44:33.196Z,57.05
2023-02-05T15:47:04.052Z,56.76
2023-02-05T15:49:58.669Z,56.70
2023-02-05T15:52:31.716Z,56.63
2023-02-05T15:55:01.454Z,56.95
2023-02-05T15:57:30.538Z,57.41
2023-02-05T16:00:00.987Z,57.17
2023-02-05T16:02:29.000Z,57.38
2023-02-05T16:05:19.204Z,58.02
2023-02-05T16:08:03.460Z,58.04
2023-02-05T16:10:55.155Z,57.71
2023-02-05T16:13:22.363Z,56.54
2023-02-05T16:15:52.636Z,56.17
2023-02-05T16:18:23.951Z,56.42
2023-02-05T16:20:57.224Z,57.41
2023-02-05T16:23:26.991Z,57.00
2023-02-05T16:25:59.777Z,56.42
2023-02-05T16:28:36.326Z,56.33
2023-02-05T16:31:03.982Z,57.21
2023-02-05T16:33:38.107Z,58.89
2023-02-05T16:36:07.874Z,58.59
2023-02-05T16:38:35.258Z,58.83
2023-02-05T16:41:18.056Z,59.53
2023-02-05T16:43:45.193Z,59.32
2023-02-05T16:46:14.999Z,60.18
2023-02-05T16:48:47.669Z,61.01
2023-02-05T16:51:33.099Z,62.04
2023-02-05T16:54:00.759Z,62.49
2023-02-05T16:56:30.242Z,61.92
2023-02-05T16:59:00.637Z,61.32
2023-02-05T17:01:38.562Z,62.09
2023-02-05T17:04:05.465Z,60.94
2023-02-05T17:06:37.926Z,63.01
2023-02-05T17:09:06.644Z,63.66
2023-02-05T17:11:43.036Z,63.41
2023-02-05T17:14:12.915Z,63.91
2023-02-05T17:16:40.761Z,65.50
2023-02-05T17:19:23.555Z,66.20
2023-02-05T17:22:10.234Z,66.04
2023-02-05T17:24:38.191Z,65.52
2023-02-05T17:27:05.481Z,64.98
2023-02-05T17:29:34.573Z,63.45
2023-02-05T17:32:01.530Z,64.66
2023-02-05T17:34:29.181Z,66.21
2023-02-05T17:36:56.002Z,68.58
2023-02-05T17:39:23.041Z,67.88
2023-02-05T17:42:04.719Z,68.39
2023-02-05T17:44:32.981Z,68.15
2023-02-05T17:47:00.582Z,68.06
2023-02-05T17:49:27.497Z,70.29
2023-02-05T17:51:54.500Z,70.23
2023-02-05T17:54:23.195Z,69.54
2023-02-05T17:56:51.567Z,70.06
2023-02-05T17:59:20.385Z,70.62
2023-02-05T18:01:47.742Z,72.11
2023-02-05T18:04:15.215Z,73.01
2023-02-05T18:06:43.094Z,74.59
2023-02-05T18:09:10.278Z,74.47
2023-02-05T18:11:37.789Z,75.82
2023-02-05T18:14:05.157Z,73.71
2023-02-05T18:16:36.557Z,71.41
2023-02-05T18:19:03.323Z,74.77
2023-02-05T18:21:30.174Z,77.98
2023-02-05T18:23:56.674Z,79.45
2023-02-05T18:26:23.338Z,80.04
2023-02-05T18:28:51.664Z,78.45
2023-02-05T18:31:19.281Z,73.84
2023-02-05T18:33:49.271Z,72.13
2023-02-05T18:36:16.114Z,72.02
2023-02-05T18:38:45.669Z,71.53
2023-02-05T18:41:12.565Z,70.85
2023-02-05T18:43:40.371Z,70.07
2023-02-05T18:46:13.562Z,70.53
2023-02-05T18:49:03.429Z,70.92
2023-02-05T18:51:30.841Z,71.34
2023-02-05T18:53:59.029Z,72.17
2023-02-05T18:56:28.488Z,72.66
2023-02-05T18:58:59.071Z,73.71
2023-02-05T19:01:29.127Z,74.34
2023-02-05T19:03:57.068Z,74.94
2023-02-05T19:06:24.957Z,73.74
2023-02-05T19:08:52.061Z,72.24
2023-02-05T19:11:20.853Z,74.26
2023-02-05T19:13:48.608Z,75.42
2023-02-05T19:16:17.172Z,75.86
2023-02-05T19:18:46.049Z,75.79
2023-02-05T19:21:17.190Z,74.01
2023-02-05T19:23:47.595Z,72.95
2023-02-05T19:26:15.700Z,72.05
2023-02-05T19:28:44.252Z,71.53
2023-02-05T19:31:12.655Z,71.39
2023-02-05T19:33:40.644Z,72.78
2023-02-05T19:36:12.830Z,76.17
2023-02-05T19:38:41.022Z,78.54
2023-02-05T19:41:10.672Z,76.87
2023-02-05T19:43:37.674Z,74.31
2023-02-05T19:46:08.342Z,73.62
2023-02-05T19:48:36.367Z,73.55
2023-02-05T19:51:05.055Z,76.07
2023-02-05T19:53:33.697Z,74.39
2023-02-05T19:56:07.526Z,74.31
2023-02-05T19:58:38.784Z,74.60
2023-02-05T20:01:12.696Z,75.24
2023-02-05T20:03:40.201Z,75.35
2023-02-05T20:06:07.562Z,77.13
2023-02-05T20:08:35.688Z,77.22
2023-02-05T20:11:03.425Z,78.02
2023-02-05T20:13:31.342Z,77.24
2023-02-05T20:16:01.232Z,75.96
2023-02-05T20:18:28.033Z,75.45
2023-02-05T20:20:56.414Z,75.18
2023-02-05T20:23:25.390Z,74.88
2023-02-05T20:25:52.531Z,75.01
2023-02-05T20:28:19.268Z,75.01
2023-02-05T20:31:04.955Z,74.90
2023-02-05T20:33:32.174Z,75.70
2023-02-05T20:36:03.542Z,75.18
2023-02-05T20:38:30.801Z,75.05
2023-02-05T20:40:57.656Z,74.63
2023-02-05T20:43:27.558Z,74.65
2023-02-05T20:45:55.043Z,75.92
2023-02-05T20:48:22.313Z,75.47
2023-02-05T20:50:49.000Z,75.45
2023-02-05T20:53:15.976Z,76.96
2023-02-05T20:55:43.622Z,76.57
2023-02-05T20:58:10.967Z,75.79
2023-02-05T21:00:38.225Z,76.92
2023-02-05T21:03:06.210Z,77.65
2023-02-05T21:05:33.340Z,77.53
2023-02-05T21:08:00.092Z,77.88
2023-02-05T21:10:27.738Z,78.26
2023-02-05T21:12:54.575Z,80.92
2023-02-05T21:15:21.853Z,83.36
2023-02-05T21:17:49.423Z,85.07
2023-02-05T21:20:16.531Z,83.08
2023-02-05T21:22:43.777Z,82.58
2023-02-05T21:25:11.150Z,87.22
2023-02-05T21:27:38.546Z,87.07
2023-02-05T21:30:06.424Z,84.71
2023-02-05T21:32:33.790Z,88.47
2023-02-05T21:35:00.875Z,86.35
2023-02-05T21:37:28.374Z,83.16
2023-02-05T21:40:08.466Z,83.17
2023-02-05T21:42:36.486Z,83.69
2023-02-05T21:45:03.750Z,88.34
2023-02-05T21:47:31.618Z,90.62
2023-02-05T21:49:58.850Z,85.68
2023-02-05T21:52:25.548Z,84.73
2023-02-05T21:54:52.355Z,83.30
2023-02-05T21:57:18.949Z,81.31
2023-02-05T21:59:45.910Z,79.47
2023-02-05T22:02:14.579Z,78.33
2023-02-05T22:04:41.375Z,79.47
2023-02-05T22:07:07.982Z,84.45
2023-02-05T22:09:34.684Z,84.40
2023-02-05T22:12:03.935Z,82.80
2023-02-05T22:14:30.938Z,80.90
2023-02-05T22:16:57.887Z,79.68
2023-02-05T22:19:25.019Z,78.47
2023-02-05T22:21:51.674Z,78.35
2023-02-05T22:24:27.612Z,78.39
2023-02-05T22:26:54.353Z,80.10
2023-02-05T22:29:22.409Z,83.78
2023-02-05T22:31:53.111Z,82.85
2023-02-05T22:34:20.041Z,81.31
2023-02-05T22:36:46.652Z,80.15
2023-02-05T22:39:13.290Z,78.73
2023-02-05T22:41:41.579Z,79.86
2023-02-05T22:44:09.295Z,82.83
2023-02-05T22:46:39.716Z,81.35
2023-02-05T22:49:08.116Z,80.88
2023-02-05T22:51:37.165Z,83.98
2023-02-05T22:54:04.457Z,84.65
2023-02-05T22:56:31.694Z,82.25
2023-02-05T22:58:59.720Z,83.17
2023-02-05T23:01:32.743Z,83.83
2023-02-05T23:04:00.343Z,84.48
2023-02-05T23:06:32.556Z,86.23
2023-02-05T23:09:00.858Z,85.46
2023-02-05T23:11:28.277Z,87.05
2023-02-05T23:13:56.701Z,88.00
2023-02-05T23:16:25.627Z,85.31
2023-02-05T23:18:53.361Z,84.79
2023-02-05T23:21:23.626Z,84.13
2023-02-05T23:23:51.721Z,83.35
2023-02-05T23:26:26.384Z,83.51
2023-02-05T23:28:53.967Z,81.92
2023-02-05T23:31:22.023Z,80.96
2023-02-05T23:33:49.268Z,79.73
2023-02-05T23:36:15.888Z,79.33
2023-02-05T23:38:42.482Z,79.16
2023-02-05T23:41:09.672Z,78.71
2023-02-05T23:43:36.908Z,78.60
2023-02-05T23:46:04.560Z,82.58
2023-02-05T23:48:32.361Z,84.86
2023-02-05T23:50:58.956Z,87.04
2023-02-05T23:53:25.488Z,86.96
2023-02-05T23:55:52.756Z,86.88
2023-02-05T23:58:20.957Z,84.79
